ADDS METAR Data INFO
IDs: Format: Raw Decoded Include TAF

Data at: 1352 UTC 17 Dec 2017

KX60 171335Z AUTO 00000KT 9SM 14/12 A3028 RMK A01
KX60 171315Z AUTO 00000KT 9SM 13/11 A3028 RMK A01
KX60 171255Z AUTO 00000KT 9SM 13/11 A3028 RMK A01
KX60 171235Z AUTO 00000KT 8SM 12/11 A3027 RMK A01
KX60 171215Z AUTO 00000KT 9SM 12/11 A3026 RMK A01
KX60 171155Z AUTO 00000KT 10SM 12/11 A3025 RMK A01
KX60 171135Z AUTO 00000KT 10SM 11/10 A3024 RMK A01
KX60 171115Z AUTO 00000KT 9SM 11/10 A3025 RMK A01
KX60 171055Z AUTO 00000KT 8SM 11/10 A3023 RMK A01
KX60 171035Z AUTO 00000KT 8SM 11/10 A3023 RMK A01
KX60 171015Z AUTO 00000KT 7SM 10/10 A3022 RMK A01
KX60 170955Z AUTO 00000KT 5SM BR 10/10 A3023 RMK A01
KX60 170935Z AUTO 00000KT 6SM BR 10/09 A3025 RMK A01
KX60 170915Z AUTO 00000KT 5SM BR 10/09 A3025 RMK A01
KX60 170855Z AUTO 00000KT 7SM 10/09 A3026 RMK A01
KX60 170835Z AUTO 00000KT 7SM 10/09 A3026 RMK A01
KX60 170815Z AUTO 00000KT 8SM 10/09 A3027 RMK A01
KX60 170755Z AUTO 00000KT 8SM 10/09 A3027 RMK A01
KX60 170735Z AUTO 00000KT 7SM 10/09 A3027 RMK A01
KX60 170715Z AUTO 00000KT 8SM 10/09 A3028 RMK A01
KX60 170655Z AUTO 00000KT 8SM 10/09 A3028 RMK A01
KX60 170635Z AUTO 00000KT 9SM 10/09 A3029 RMK A01
KX60 170615Z AUTO 00000KT 9SM 11/09 A3028 RMK A01
KX60 170555Z AUTO 00000KT 10SM 11/09 A3029 RMK A01
KX60 170535Z AUTO 00000KT 10SM 11/09 A3029 RMK A01
KX60 170515Z AUTO 00000KT 10SM 11/09 A3028 RMK A01
KX60 170455Z AUTO 00000KT 10SM 12/09 A3028 RMK A01
KX60 170435Z AUTO 00000KT 10SM 12/09 A3029 RMK A01
KX60 170415Z AUTO 00000KT 10SM CLR 12/09 A3029 RMK A01
KX60 170355Z AUTO 00000KT 10SM CLR 12/09 A3029 RMK A01
KX60 170335Z AUTO 00000KT 10SM CLR 12/09 A3029 RMK A01
KX60 170315Z AUTO 00000KT 10SM CLR 13/09 A3029 RMK A01
KX60 170255Z AUTO 07004KT 10SM CLR 13/09 A3029 RMK A01
KX60 170235Z AUTO 00000KT 10SM CLR 12/09 A3028 RMK A01
KX60 170215Z AUTO 00000KT 10SM CLR 12/09 A3028 RMK A01
KX60 170155Z AUTO 00000KT 10SM CLR 12/09 A3028 RMK A01
KX60 170135Z AUTO 00000KT 10SM CLR 12/09 A3028 RMK A01
KX60 170115Z AUTO 00000KT 10SM CLR 12/09 A3027 RMK A01
KX60 170055Z AUTO 00000KT 10SM CLR 13/09 A3027 RMK A01
KX60 170035Z AUTO 00000KT 10SM CLR 14/09 A3027 RMK A01
KX60 170015Z AUTO 00000KT 10SM CLR 14/09 A3026 RMK A01
KX60 162355Z AUTO 00000KT 10SM CLR 14/09 A3026 RMK A01
KX60 162335Z AUTO 00000KT 10SM CLR 14/09 A3025 RMK A01
KX60 162315Z AUTO 00000KT 10SM CLR 15/08 A3024 RMK A01
KX60 162255Z AUTO 00000KT 9SM CLR 16/08 A3024 RMK A01
KX60 162235Z AUTO 00000KT 9SM CLR 16/08 A3024 RMK A01
KX60 162215Z AUTO 00000KT 10SM CLR 17/08 A3023 RMK A01
KX60 162155Z AUTO 02004KT 10SM CLR 18/08 A3023 RMK A01
KX60 162135Z AUTO 01005KT 10SM CLR 19/08 A3022 RMK A01
KX60 162115Z AUTO 00000KT 9SM CLR 20/08 A3022 RMK A01
KX60 162055Z AUTO 00000KT 9SM CLR 20/07 A3022 RMK A01
KX60 162035Z AUTO 01005KT 9SM CLR 20/07 A3022 RMK A01
KX60 162015Z AUTO 07004KT 9SM CLR 21/07 A3021 RMK A01
KX60 161955Z AUTO VRB04KT 9SM CLR 20/07 A3022 RMK A01
KX60 161935Z AUTO 00000KT 9SM CLR 20/07 A3022 RMK A01
KX60 161915Z AUTO 00000KT 9SM CLR 19/06 A3022 RMK A01
KX60 161855Z AUTO VRB04KT 9SM CLR 19/06 A3023 RMK A01
KX60 161835Z AUTO 00000KT 10SM CLR 19/06 A3023 RMK A01
KX60 161815Z AUTO 00000KT 9SM CLR 19/06 A3024 RMK A01
KX60 161755Z AUTO 00000KT 9SM FEW048 18/06 A3025 RMK A01
KX60 161735Z AUTO 00000KT 9SM BKN048 17/06 A3025 RMK A01
KX60 161715Z AUTO 00000KT 10SM OVC048 16/05 A3027 RMK A01
KX60 161655Z AUTO 00000KT 10SM OVC049 16/06 A3028 RMK A01
KX60 161635Z AUTO 00000KT 9SM BKN049 15/06 A3029 RMK A01
KX60 161615Z AUTO 00000KT 10SM BKN049 15/06 A3029 RMK A01
KX60 161555Z AUTO VRB04KT 9SM BKN049 14/06 A3030 RMK A01
KX60 161535Z AUTO VRB04KT 9SM FEW033 BKN049 14/06 A3029 RMK A01
KX60 161515Z AUTO 00000KT 9SM SCT033 BKN049 13/06 A3030 RMK A01
KX60 161455Z AUTO 00000KT 9SM FEW033 BKN049 13/06 A3030 RMK A01
KX60 161435Z AUTO 00000KT 9SM SCT032 SCT041 BKN049 13/06 A3029 RMK A01
KX60 161415Z AUTO 00000KT 9SM BKN033 SCT041 BKN049 13/06 A3028 RMK A01
KX60 161355Z AUTO 00000KT 9SM BKN033 BKN049 13/06 A3028 RMK A01
KX60 161335Z AUTO VRB04KT 9SM SCT033 BKN049 13/06 A3027 RMK A01
KX60 161315Z AUTO 00000KT 9SM SCT033 BKN048 12/06 A3026 RMK A01
KX60 161255Z AUTO 00000KT 9SM 12/06 A3025 RMK A01
KX60 161235Z AUTO 00000KT 9SM 12/06 A3025 RMK A01
KX60 161215Z AUTO 36005KT 10SM FEW035 OVC042 12/07 A3025 RMK A01
KX60 161155Z AUTO 00000KT 10SM FEW035 OVC042 12/07 A3024 RMK A01
KX60 161135Z AUTO 00000KT 10SM OVC041 12/07 A3023 RMK A01
KX60 161115Z AUTO 00000KT 10SM SCT035 OVC042 12/07 A3023 RMK A01
KX60 161055Z AUTO 00000KT 10SM OVC043 12/08 A3021 RMK A01
KX60 161035Z AUTO 00000KT 10SM OVC043 11/09 A3021 RMK A01
KX60 161015Z AUTO 00000KT 10SM BKN045 11/07 A3021 RMK A01
KX60 160955Z AUTO 00000KT 10SM CLR 11/07 A3020 RMK A01
KX60 160935Z AUTO 00000KT 10SM CLR 12/07 A3019 RMK A01
KX60 160915Z AUTO 00000KT 10SM CLR 12/07 A3020 RMK A01
KX60 160855Z AUTO 00000KT 10SM SCT075 12/07 A3020 RMK A01
KX60 160835Z AUTO 00000KT 10SM FEW050 BKN075 13/07 A3020 RMK A01
KX60 160815Z AUTO 00000KT 10SM FEW050 FEW070 13/07 A3020 RMK A01
KX60 160755Z AUTO 00000KT 10SM CLR 13/07 A3019 RMK A01
KX60 160735Z AUTO 00000KT 10SM FEW070 13/08 A3019 RMK A01
KX60 160715Z AUTO 00000KT 10SM SCT055 BKN065 14/08 A3019 RMK A01
KX60 160655Z AUTO 32003KT 10SM CLR 13/09 A3019 RMK A01
KX60 160635Z AUTO 00000KT 10SM CLR 14/09 A3018 RMK A01
KX60 160615Z AUTO 00000KT 10SM FEW080 15/09 A3018 RMK A01
KX60 160555Z AUTO 00000KT 10SM FEW060 FEW080 15/10 A3017 RMK A01
KX60 160535Z AUTO 00000KT 10SM FEW060 FEW080 15/09 A3018 RMK A01
KX60 160515Z AUTO 00000KT 10SM BKN060 15/10 A3017 RMK A01
KX60 160455Z AUTO 34003KT 10SM BKN060 15/11 A3018 RMK A01
KX60 160435Z AUTO 00000KT 10SM BKN060 BKN085 16/10 A3018 RMK A01
KX60 160415Z AUTO 00000KT 10SM SCT070 SCT085 16/10 A3018 RMK A01
KX60 160355Z AUTO 00000KT 10SM SCT070 16/11 A3018 RMK A01
KX60 160335Z AUTO 31004KT 10SM FEW070 16/11 A3018 RMK A01
KX60 160315Z AUTO 29004KT 10SM CLR 16/14 A3017 RMK A01
KX60 160255Z AUTO 30004KT 10SM CLR 16/15 A3016 RMK A01
KX60 160235Z AUTO 00000KT 10SM FEW080 16/15 A3016 RMK A01
KX60 160215Z AUTO 00000KT 10SM FEW080 16/15 A3016 RMK A01
KX60 160155Z AUTO 00000KT 10SM CLR 16/15 A3015 RMK A01